Nearby METAR Reports for Burr Ridge, IL

 


Notice: Undefined index: RAW-METAR in /home/btrip/public_html/wx/include-metar-display.php on line 246
KMDW - Chicago, Illinois, USA
Distance from station: ENE 8mi, 13km
Updated: Sun, 09-Dec-2018 1:48pm MST
unable to load KMDW data RC=
unable to load KMDW data RC=
 
KLOT - Romeoville/Chi, Illinois, USA
Distance from station: SW 15mi, 24km
Updated: Sun, 09-Dec-2018 1:35pm MST
Clear
Clear
 Wind from N
Wind: N 5 mph , 7 km/h
Temperature: 32°F , 0°C
Wind Chill: 27°F , -3°C
Dew Point: 21°F , -6°C
Humidity: 64%
Barometer: 30.32 inHg , 1026.8 hPa
Clouds: Clear
Visibility: 10 miles , 16 km
2018/12/09 20:35 KLOT 092035Z AUTO 36004KT 10SM CLR 00/M06 A3032 RMK AO2 T00031057
 
KORD - Chicago O'hare, Illinois, USA
Distance from station: N 16mi, 25km
Updated: Sun, 09-Dec-2018 12:51pm MST
Few Clouds
Few Clouds
 Wind from WNW
Wind: WNW 6 mph , 9 km/h
Temperature: 34°F , 1°C
Wind Chill: 29°F , -2°C
Dew Point: 19°F , -7°C
Humidity: 56%
Barometer: 30.32 inHg , 1026.8 hPa
Clouds: Few Clouds
Visibility: 9 miles , 14 km
Cloud details: Few Clouds 25000 ft
2018/12/09 19:51 KORD 091951Z 30005KT 9SM FEW250 01/M07 A3032 RMK AO2 SLP276 T00111072 $
KDPA - Chicago/Dupage, Illinois, USA
Distance from station: WNW 21mi, 34km
Updated: Sun, 09-Dec-2018 12:52pm MST
Haze, Clear
Haze, Clear
 Wind from WNW
Wind: WNW 6 mph , 9 km/h
Temperature: 32°F , 0°C
Wind Chill: 26°F , -3°C
Dew Point: 18°F , -8°C
Humidity: 55%
Barometer: 30.32 inHg , 1026.8 hPa
Summary: Haze
Clouds: Clear
Visibility: 6 miles , 10 km
2018/12/09 19:52 KDPA 091952Z 30005KT 6SM HZ CLR 00/M08 A3032 RMK AO2 SLP278 T00001078
 
KJOT - Joliet, Illinois, USA
Distance from station: SW 22mi, 36km
Updated: Sun, 09-Dec-2018 1:35pm MST
Clear
Clear
 Wind from N
Wind: N 5 mph , 7 km/h
Temperature: 34°F , 1°C
Wind Chill: 29°F , -2°C
Dew Point: 21°F , -6°C
Humidity: 60%
Barometer: 30.33 inHg , 1027.1 hPa
Clouds: Clear
Visibility: 10 miles , 16 km
2018/12/09 20:35 KJOT 092035Z AUTO 35004KT 10SM CLR 01/M06 A3033 RMK AO2 T00121060
KIGQ - Chicago/Lansing, Illinois, USA
Distance from station: SE 24mi, 39km
Updated: Sun, 09-Dec-2018 1:35pm MST
Clear
Clear
 Wind from NE
Wind: NE 5 mph , 7 km/h
Temperature: 34°F , 1°C
Wind Chill: 29°F , -2°C
Dew Point: 23°F , -5°C
Humidity: 65%
Barometer: 30.33 inHg , 1027.1 hPa
Clouds: Clear
Visibility: 7 miles , 11 km
2018/12/09 20:35 KIGQ 092035Z AUTO 05004KT 7SM CLR 01/M05 A3033 RMK AO2 T00051049
 
KPWK - Palwaukee, Illinois, USA
Distance from station: N 25mi, 40km
Updated: Sun, 09-Dec-2018 12:52pm MST
Clear
Clear
 Wind from NNW
Wind: NNW 8 mph , 13 km/h
Temperature: 36°F , 2°C
Wind Chill: 30°F , -1°C
Dew Point: 18°F , -8°C
Humidity: 48%
Barometer: 30.34 inHg , 1027.4 hPa
Clouds: Clear
Visibility: 10 miles , 16 km
2018/12/09 19:52 KPWK 091952Z 33007KT 10SM CLR 02/M08 A3034 RMK AO2 SLP283 T00171078
KGYY - Gary Regional, Indiana, USA
Distance from station: ESE 27mi, 43km
Updated: Sun, 09-Dec-2018 12:45pm MST
Few Clouds
Few Clouds
 Wind from N
Wind: N 6 mph , 9 km/h
Temperature: 32°F , 0°C
Wind Chill: 26°F , -3°C
Dew Point: 25°F , -4°C
Humidity: 75%
Barometer: 30.34 inHg , 1027.4 hPa
Clouds: Few Clouds
Visibility: 10 miles , 16 km
Cloud details: Few Clouds 3000 ft
2018/12/09 19:45 KGYY 091945Z 01005KT 10SM FEW030 00/M04 A3034
 
KARR - Chicago/Aurora, Illinois, USA
Distance from station: W 30mi, 48km
Updated: Sun, 09-Dec-2018 12:52pm MST
Clear
Clear
 Wind from WNW
Wind: WNW 7 mph , 11 km/h
Temperature: 32°F , 0°C
Wind Chill: 25°F , -4°C
Dew Point: 21°F , -6°C
Humidity: 64%
Barometer: 30.32 inHg , 1026.8 hPa
Clouds: Clear
Visibility: 7 miles , 11 km
2018/12/09 19:52 KARR 091952Z 30006KT 7SM CLR 00/M06 A3032 RMK AO2 SLP280 T00001061
KC09 - Morris-Washburn, Illinois, USA
Distance from station: SW 35mi, 56km
Updated: Sun, 09-Dec-2018 1:35pm MST
Clear
Clear
 Wind from N
Wind: N 3 mph , 6 km/h
Temperature: 32°F , 0°C
Dew Point: 23°F , -5°C
Humidity: 69%
Barometer: 30.32 inHg , 1026.8 hPa
Clouds: Clear
Visibility: 10 miles , 16 km
2018/12/09 20:35 KC09 092035Z AUTO 35003KT 10SM CLR 00/M05 A3032 RMK AO2 T00041055
 
KDKB - De Kalb, Illinois, USA
Distance from station: WNW 43mi, 69km
Updated: Sun, 09-Dec-2018 1:35pm MST
Clear
Clear
 Wind from N
Wind: N 8 mph , 13 km/h
Temperature: 30°F , -1°C
Wind Chill: 22°F , -6°C
Dew Point: 21°F , -6°C
Humidity: 69%
Barometer: 30.33 inHg , 1027.1 hPa
Clouds: Clear
Visibility: 7 miles , 11 km
2018/12/09 20:35 KDKB 092035Z AUTO 35007KT 7SM CLR M01/M06 A3033 RMK AO2 T10081056
KUGN - Waukegan, Illinois, USA
Distance from station: N 46mi, 73km
Updated: Sun, 09-Dec-2018 12:55pm MST
Clear
Clear
 Wind from WNW
Wind: WNW 8 mph , 13 km/h
Temperature: 32°F , 0°C
Wind Chill: 25°F , -4°C
Dew Point: 19°F , -7°C
Humidity: 60%
Barometer: 30.32 inHg , 1026.8 hPa
Clouds: Clear
Visibility: 7 miles , 11 km
2018/12/09 19:55 KUGN 091955Z 30007KT 7SM CLR 00/M07 A3032 RMK AO2 SLP285 T00001067
 
KIKK - Kankakee, Illinois, USA
Distance from station: S 48mi, 77km
Updated: Sun, 09-Dec-2018 1:35pm MST
Clear
Clear
 Wind from calm
Wind: Calm
Temperature: 34°F , 1°C
Dew Point: 21°F , -6°C
Humidity: 60%
Barometer: 30.33 inHg , 1027.1 hPa
Clouds: Clear
Visibility: 10 miles , 16 km
2018/12/09 20:35 KIKK 092035Z AUTO 00000KT 10SM CLR 01/M06 A3033 RMK AO2 T00141063